»·PEaware :: N172CM KTIW-KBLI

N172CM :: KTIW-KBLI

FLIGHT INFORMATION

Flight Status: Arrived
Operator: Privately registered:
United States
More flights under this callsign
Pilot: John F. (11196)
Aircraft: CESSNA 172 SKYHAWK
(C172)
More flights by this aircraft type
Origin: KTIW Tacoma Narrows
United States
Destination: KBLI Bellingham Intl
United States
More flights between these airports :: More routes between these airports
Route: PAE MADEE4
File this flight plan on PilotEdge
Remarks:
Altitude:
(Current/Filed)
6,000ft
Speed:
(Current/Filed)
110kts
Departed: 10-Jun-23 02:23 PM
Arrived: 10-Jun-23 03:20 PM
Distance/Time
Traveled:
92nm/0:57
Distance/Time
To Go:
Arrived

Flight Plot

Page will automatically refresh every two minutes.

Flight plan parsing failed; only flown route is shown


Map Options




Map Legend


Flown Route
Filed Route
Departure Airport
Arrival Airport
Navaid (VOR, NDB)
Fix

Horizontal Profiles

Position Reports

Time Latitude Longitude Heading Altitude Ground
Speed
10-Jun-23 14:21 47.606633 -122.423963 14 5995ft 115kts
10-Jun-23 14:22 47.636315 -122.410214 14 5984ft 109kts
10-Jun-23 14:23 47.666129 -122.396367 14 5986ft 113kts
10-Jun-23 14:24 47.695631 -122.382644 14 5980ft 106kts
10-Jun-23 14:25 47.724212 -122.369347 14 5992ft 108kts
10-Jun-23 14:26 47.752933 -122.355956 14 5988ft 107kts
10-Jun-23 14:27 47.781414 -122.342665 13 5994ft 107kts
10-Jun-23 14:28 47.809645 -122.329477 14 5989ft 105kts
10-Jun-23 14:29 47.837440 -122.316479 13 5990ft 104kts
10-Jun-23 14:30 47.865421 -122.303371 13 6000ft 105kts
10-Jun-23 14:31 47.893253 -122.290322 13 5998ft 105kts
10-Jun-23 14:32 47.921552 -122.278256 350 5994ft 104kts
10-Jun-23 14:33 47.949900 -122.286492 347 6000ft 105kts
10-Jun-23 14:34 47.979077 -122.294908 348 6019ft 112kts
10-Jun-23 14:35 48.011330 -122.304199 347 5992ft 112kts
10-Jun-23 14:36 48.041705 -122.313039 347 5992ft 110kts
10-Jun-23 14:37 48.071766 -122.321756 347 6000ft 109kts
10-Jun-23 14:38 48.101608 -122.330401 347 6009ft 108kts
10-Jun-23 14:39 48.131781 -122.339169 347 6005ft 111kts
10-Jun-23 14:40 48.162317 -122.348041 347 6005ft 112kts
10-Jun-23 14:41 48.192785 -122.356909 347 6007ft 111kts
10-Jun-23 14:42 48.223109 -122.365749 347 6003ft 111kts
10-Jun-23 14:43 48.253634 -122.374654 347 6009ft 112kts
10-Jun-23 14:44 48.284123 -122.383563 347 5999ft 111kts
10-Jun-23 14:45 48.314811 -122.392535 347 6013ft 112kts
10-Jun-23 14:46 48.345512 -122.401525 347 6010ft 112kts
10-Jun-23 14:47 48.376203 -122.409249 351 6002ft 112kts
10-Jun-23 14:48 48.407303 -122.415599 350 6006ft 112kts
10-Jun-23 14:49 48.438325 -122.422002 350 6006ft 112kts
10-Jun-23 14:50 48.469272 -122.428406 351 6005ft 112kts
10-Jun-23 14:51 48.500178 -122.434792 350 6014ft 112kts
10-Jun-23 14:52 48.531170 -122.441218 350 6004ft 111kts
10-Jun-23 14:53 48.562111 -122.447630 351 6005ft 113kts
10-Jun-23 14:54 48.593150 -122.454076 351 6009ft 111kts
10-Jun-23 14:55 48.623567 -122.460408 351 6006ft 111kts
10-Jun-23 14:56 48.654851 -122.466919 351 5995ft 113kts
10-Jun-23 14:57 48.685769 -122.473373 351 5990ft 110kts
10-Jun-23 14:58 48.716720 -122.479830 351 5993ft 112kts
10-Jun-23 14:59 48.747456 -122.486268 351 5991ft 111kts
10-Jun-23 15:00 48.777753 -122.492615 352 5986ft 110kts
10-Jun-23 15:01 48.808382 -122.499030 352 5991ft 111kts
10-Jun-23 15:02 48.839244 -122.505495 352 5986ft 111kts
10-Jun-23 15:03 48.869950 -122.511944 352 5994ft 112kts
10-Jun-23 15:04 48.901009 -122.518479 353 5991ft 113kts
10-Jun-23 15:05 48.932195 -122.525038 353 5990ft 113kts
10-Jun-23 15:06 48.963442 -122.531630 353 5987ft 113kts
10-Jun-23 15:07 48.994608 -122.538370 345 5986ft 113kts
10-Jun-23 15:08 49.015065 -122.576384 312 5376ft 118kts
10-Jun-23 15:09 49.031276 -122.552438 139 4715ft 127kts
10-Jun-23 15:10 48.997717 -122.540957 169 4021ft 119kts
10-Jun-23 15:11 48.971416 -122.544234 193 3497ft 90kts
10-Jun-23 15:12 48.947880 -122.543691 182 2892ft 79kts
10-Jun-23 15:13 48.925210 -122.543129 181 2378ft 81kts
10-Jun-23 15:14 48.902316 -122.542075 180 1985ft 75kts
10-Jun-23 15:15 48.879477 -122.541236 178 1737ft 87kts
10-Jun-23 15:16 48.854809 -122.539243 180 962ft 89kts
10-Jun-23 15:17 48.830500 -122.537553 184 753ft 89kts
10-Jun-23 15:18 48.806634 -122.537618 180 325ft 80kts
10-Jun-23 15:19 48.793242 -122.537553 181 169ft 20kts

Navigation Log

Ident Type
Flight plan parsing failed, navigation log unavailable